sensor_id;sensor_type;location;lat;lon;timestamp;temperature;humidity
16384;DHT22;8301;51.440;6.610;2023-06-05T00:00:13;15.20;88.20
16384;DHT22;8301;51.440;6.610;2023-06-05T00:02:41;15.30;58.40
16384;DHT22;8301;51.440;6.610;2023-06-05T00:05:08;15.20;99.90
16384;DHT22;8301;51.440;6.610;2023-06-05T00:07:37;15.20;99.90
16384;DHT22;8301;51.440;6.610;2023-06-05T00:10:06;15.10;99.90
16384;DHT22;8301;51.440;6.610;2023-06-05T00:12:35;15.10;99.90
16384;DHT22;8301;51.440;6.610;2023-06-05T00:15:04;15.10;99.90
16384;DHT22;8301;51.440;6.610;2023-06-05T00:17:32;14.90;99.90
16384;DHT22;8301;51.440;6.610;2023-06-05T00:19:59;14.90;99.90
16384;DHT22;8301;51.440;6.610;2023-06-05T00:22:27;14.80;99.90
16384;DHT22;8301;51.440;6.610;2023-06-05T00:24:54;14.80;99.90
16384;DHT22;8301;51.440;6.610;2023-06-05T00:27:22;14.80;99.90
16384;DHT22;8301;51.440;6.610;2023-06-05T00:29:50;14.80;99.90
16384;DHT22;8301;51.440;6.610;2023-06-05T00:32:18;14.80;99.90
16384;DHT22;8301;51.440;6.610;2023-06-05T00:34:46;14.80;99.90
16384;DHT22;8301;51.440;6.610;2023-06-05T00:37:15;14.70;99.90
16384;DHT22;8301;51.440;6.610;2023-06-05T00:39:43;14.70;99.90
16384;DHT22;8301;51.440;6.610;2023-06-05T00:42:10;14.60;99.90
16384;DHT22;8301;51.440;6.610;2023-06-05T00:44:41;14.60;99.90
16384;DHT22;8301;51.440;6.610;2023-06-05T00:47:08;14.50;99.90
16384;DHT22;8301;51.440;6.610;2023-06-05T00:49:37;14.50;99.90
16384;DHT22;8301;51.440;6.610;2023-06-05T00:52:04;14.50;99.90
16384;DHT22;8301;51.440;6.610;2023-06-05T00:54:33;14.40;99.90
16384;DHT22;8301;51.440;6.610;2023-06-05T00:57:00;14.40;99.90
16384;DHT22;8301;51.440;6.610;2023-06-05T00:59:30;14.40;99.90
16384;DHT22;8301;51.440;6.610;2023-06-05T01:02:00;14.20;1.00
16384;DHT22;8301;51.440;6.610;2023-06-05T01:04:29;14.30;1.00
16384;DHT22;8301;51.440;6.610;2023-06-05T01:06:59;14.20;1.00
16384;DHT22;8301;51.440;6.610;2023-06-05T01:09:30;14.10;1.00
16384;DHT22;8301;51.440;6.610;2023-06-05T01:12:25;14.00;1.00
16384;DHT22;8301;51.440;6.610;2023-06-05T01:14:49;14.10;1.00
16384;DHT22;8301;51.440;6.610;2023-06-05T01:17:18;14.10;1.00
16384;DHT22;8301;51.440;6.610;2023-06-05T01:19:48;14.00;1.00
16384;DHT22;8301;51.440;6.610;2023-06-05T01:22:16;14.00;1.00
16384;DHT22;8301;51.440;6.610;2023-06-05T01:24:44;14.00;1.00
16384;DHT22;8301;51.440;6.610;2023-06-05T01:27:17;14.00;1.00
16384;DHT22;8301;51.440;6.610;2023-06-05T01:30:02;14.00;1.00
16384;DHT22;8301;51.440;6.610;2023-06-05T01:32:40;14.00;1.00
16384;DHT22;8301;51.440;6.610;2023-06-05T01:35:10;13.90;1.00
16384;DHT22;8301;51.440;6.610;2023-06-05T01:37:41;13.80;1.00
16384;DHT22;8301;51.440;6.610;2023-06-05T01:40:19;13.70;1.00
16384;DHT22;8301;51.440;6.610;2023-06-05T01:42:42;13.70;1.00
16384;DHT22;8301;51.440;6.610;2023-06-05T01:45:11;13.60;1.00
16384;DHT22;8301;51.440;6.610;2023-06-05T01:47:39;13.70;1.00
16384;DHT22;8301;51.440;6.610;2023-06-05T01:50:08;13.60;1.00
16384;DHT22;8301;51.440;6.610;2023-06-05T01:52:38;13.50;1.00
16384;DHT22;8301;51.440;6.610;2023-06-05T01:55:08;13.40;1.00
16384;DHT22;8301;51.440;6.610;2023-06-05T01:57:37;13.40;7.40
16384;DHT22;8301;51.440;6.610;2023-06-05T02:00:05;13.40;29.50
16384;DHT22;8301;51.440;6.610;2023-06-05T02:02:35;13.40;1.00
16384;DHT22;8301;51.440;6.610;2023-06-05T02:05:03;13.30;1.00
16384;DHT22;8301;51.440;6.610;2023-06-05T02:07:32;13.30;1.00
16384;DHT22;8301;51.440;6.610;2023-06-05T02:10:00;13.30;1.00
16384;DHT22;8301;51.440;6.610;2023-06-05T02:12:29;13.30;1.00
16384;DHT22;8301;51.440;6.610;2023-06-05T02:14:56;13.20;1.00
16384;DHT22;8301;51.440;6.610;2023-06-05T02:17:24;13.20;1.00
16384;DHT22;8301;51.440;6.610;2023-06-05T02:19:51;13.20;1.00
16384;DHT22;8301;51.440;6.610;2023-06-05T02:22:19;13.20;1.00
16384;DHT22;8301;51.440;6.610;2023-06-05T02:24:46;13.10;1.00
16384;DHT22;8301;51.440;6.610;2023-06-05T02:27:14;13.20;1.00
16384;DHT22;8301;51.440;6.610;2023-06-05T02:29:42;13.10;1.00
16384;DHT22;8301;51.440;6.610;2023-06-05T02:32:10;13.10;1.00
16384;DHT22;8301;51.440;6.610;2023-06-05T02:34:37;13.10;1.00
16384;DHT22;8301;51.440;6.610;2023-06-05T02:37:05;13.10;1.00
16384;DHT22;8301;51.440;6.610;2023-06-05T02:39:34;13.00;1.00
16384;DHT22;8301;51.440;6.610;2023-06-05T02:42:02;13.00;1.00
16384;DHT22;8301;51.440;6.610;2023-06-05T02:44:29;12.90;12.30
16384;DHT22;8301;51.440;6.610;2023-06-05T02:46:57;12.90;87.00
16384;DHT22;8301;51.440;6.610;2023-06-05T02:49:24;12.90;88.60
16384;DHT22;8301;51.440;6.610;2023-06-05T02:51:52;12.90;99.90
16384;DHT22;8301;51.440;6.610;2023-06-05T02:54:19;12.90;89.70
16384;DHT22;8301;51.440;6.610;2023-06-05T02:56:48;12.80;99.90
16384;DHT22;8301;51.440;6.610;2023-06-05T02:59:16;12.70;1.00
16384;DHT22;8301;51.440;6.610;2023-06-05T03:01:43;12.60;1.00
16384;DHT22;8301;51.440;6.610;2023-06-05T03:04:13;12.70;99.90
16384;DHT22;8301;51.440;6.610;2023-06-05T03:06:40;12.60;1.00
16384;DHT22;8301;51.440;6.610;2023-06-05T03:09:09;12.60;99.90
16384;DHT22;8301;51.440;6.610;2023-06-05T03:11:37;12.40;1.00
16384;DHT22;8301;51.440;6.610;2023-06-05T03:14:05;12.50;99.90
16384;DHT22;8301;51.440;6.610;2023-06-05T03:16:32;12.50;99.90
16384;DHT22;8301;51.440;6.610;2023-06-05T03:19:01;12.50;99.90
16384;DHT22;8301;51.440;6.610;2023-06-05T03:21:29;12.50;1.00
16384;DHT22;8301;51.440;6.610;2023-06-05T03:23:56;12.40;1.00
16384;DHT22;8301;51.440;6.610;2023-06-05T03:26:24;12.40;99.90
16384;DHT22;8301;51.440;6.610;2023-06-05T03:28:51;12.40;99.90
16384;DHT22;8301;51.440;6.610;2023-06-05T03:31:20;12.30;1.00
16384;DHT22;8301;51.440;6.610;2023-06-05T03:33:47;12.30;1.00
16384;DHT22;8301;51.440;6.610;2023-06-05T03:36:15;12.30;99.90
16384;DHT22;8301;51.440;6.610;2023-06-05T03:38:44;12.30;1.00
16384;DHT22;8301;51.440;6.610;2023-06-05T03:41:12;12.20;1.00
16384;DHT22;8301;51.440;6.610;2023-06-05T03:43:39;12.20;1.00
16384;DHT22;8301;51.440;6.610;2023-06-05T03:46:07;12.20;1.00
16384;DHT22;8301;51.440;6.610;2023-06-05T03:48:36;12.20;1.00
16384;DHT22;8301;51.440;6.610;2023-06-05T03:51:04;12.20;1.00
16384;DHT22;8301;51.440;6.610;2023-06-05T03:53:32;12.30;99.90
16384;DHT22;8301;51.440;6.610;2023-06-05T03:56:01;12.20;1.00
16384;DHT22;8301;51.440;6.610;2023-06-05T03:58:29;12.30;1.00
16384;DHT22;8301;51.440;6.610;2023-06-05T04:00:57;12.10;1.00
16384;DHT22;8301;51.440;6.610;2023-06-05T04:03:24;12.10;1.00
16384;DHT22;8301;51.440;6.610;2023-06-05T04:05:53;12.00;1.00
16384;DHT22;8301;51.440;6.610;2023-06-05T04:08:21;12.00;1.00
16384;DHT22;8301;51.440;6.610;2023-06-05T04:10:49;12.00;1.00
16384;DHT22;8301;51.440;6.610;2023-06-05T04:13:17;12.00;1.00
16384;DHT22;8301;51.440;6.610;2023-06-05T04:15:44;12.00;99.90
16384;DHT22;8301;51.440;6.610;2023-06-05T04:18:12;12.00;1.00
16384;DHT22;8301;51.440;6.610;2023-06-05T04:20:39;12.00;72.30
16384;DHT22;8301;51.440;6.610;2023-06-05T04:23:07;12.00;1.00
16384;DHT22;8301;51.440;6.610;2023-06-05T04:25:34;12.00;82.00
16384;DHT22;8301;51.440;6.610;2023-06-05T04:28:02;12.00;1.00
16384;DHT22;8301;51.440;6.610;2023-06-05T04:30:29;12.00;1.00
16384;DHT22;8301;51.440;6.610;2023-06-05T04:32:57;12.10;1.00
16384;DHT22;8301;51.440;6.610;2023-06-05T04:35:24;12.10;1.00
16384;DHT22;8301;51.440;6.610;2023-06-05T04:37:53;12.10;1.00
16384;DHT22;8301;51.440;6.610;2023-06-05T04:40:20;12.10;1.00
16384;DHT22;8301;51.440;6.610;2023-06-05T04:42:48;12.20;1.00
16384;DHT22;8301;51.440;6.610;2023-06-05T04:45:15;12.20;1.00
16384;DHT22;8301;51.440;6.610;2023-06-05T04:47:43;12.40;99.90
16384;DHT22;8301;51.440;6.610;2023-06-05T04:50:22;12.40;99.90
16384;DHT22;8301;51.440;6.610;2023-06-05T04:52:51;12.50;99.90
16384;DHT22;8301;51.440;6.610;2023-06-05T04:55:20;12.70;99.90
16384;DHT22;8301;51.440;6.610;2023-06-05T04:57:48;12.80;76.40
16384;DHT22;8301;51.440;6.610;2023-06-05T05:00:16;12.80;99.90
16384;DHT22;8301;51.440;6.610;2023-06-05T05:02:43;13.10;1.00
16384;DHT22;8301;51.440;6.610;2023-06-05T05:05:11;13.10;1.00
16384;DHT22;8301;51.440;6.610;2023-06-05T05:07:41;13.40;1.00
16384;DHT22;8301;51.440;6.610;2023-06-05T05:10:10;13.60;1.00
16384;DHT22;8301;51.440;6.610;2023-06-05T05:12:38;13.80;1.00
16384;DHT22;8301;51.440;6.610;2023-06-05T05:15:06;13.70;1.00
16384;DHT22;8301;51.440;6.610;2023-06-05T05:17:33;13.60;1.00
16384;DHT22;8301;51.440;6.610;2023-06-05T05:20:01;13.80;1.00
16384;DHT22;8301;51.440;6.610;2023-06-05T05:22:30;13.80;1.00
16384;DHT22;8301;51.440;6.610;2023-06-05T05:24:57;13.90;1.00
16384;DHT22;8301;51.440;6.610;2023-06-05T05:27:25;14.00;1.00
16384;DHT22;8301;51.440;6.610;2023-06-05T05:29:52;14.10;1.00
16384;DHT22;8301;51.440;6.610;2023-06-05T05:32:20;14.30;99.90
16384;DHT22;8301;51.440;6.610;2023-06-05T05:34:47;14.30;99.90
16384;DHT22;8301;51.440;6.610;2023-06-05T05:37:17;14.20;1.00
16384;DHT22;8301;51.440;6.610;2023-06-05T05:39:44;14.00;1.00
16384;DHT22;8301;51.440;6.610;2023-06-05T05:42:12;14.20;1.00
16384;DHT22;8301;51.440;6.610;2023-06-05T05:44:39;14.40;1.00
16384;DHT22;8301;51.440;6.610;2023-06-05T05:47:09;14.40;99.90
16384;DHT22;8301;51.440;6.610;2023-06-05T05:49:37;14.60;99.90
16384;DHT22;8301;51.440;6.610;2023-06-05T05:52:05;14.70;99.90
16384;DHT22;8301;51.440;6.610;2023-06-05T05:54:32;14.60;99.90
16384;DHT22;8301;51.440;6.610;2023-06-05T05:57:00;14.50;99.90
16384;DHT22;8301;51.440;6.610;2023-06-05T05:59:27;14.50;99.90
16384;DHT22;8301;51.440;6.610;2023-06-05T06:01:55;14.80;99.90
16384;DHT22;8301;51.440;6.610;2023-06-05T06:04:24;14.70;99.90
16384;DHT22;8301;51.440;6.610;2023-06-05T06:06:52;14.60;99.90
16384;DHT22;8301;51.440;6.610;2023-06-05T06:09:22;14.70;99.90
16384;DHT22;8301;51.440;6.610;2023-06-05T06:11:49;15.10;99.90
16384;DHT22;8301;51.440;6.610;2023-06-05T06:14:18;15.00;99.90
16384;DHT22;8301;51.440;6.610;2023-06-05T06:16:47;14.90;99.90
16384;DHT22;8301;51.440;6.610;2023-06-05T06:19:16;14.70;99.90
16384;DHT22;8301;51.440;6.610;2023-06-05T06:21:45;14.60;99.90
16384;DHT22;8301;51.440;6.610;2023-06-05T06:24:13;14.70;1.00
16384;DHT22;8301;51.440;6.610;2023-06-05T06:26:42;14.80;99.90
16384;DHT22;8301;51.440;6.610;2023-06-05T06:29:09;14.80;99.90
16384;DHT22;8301;51.440;6.610;2023-06-05T06:31:37;14.90;99.90
16384;DHT22;8301;51.440;6.610;2023-06-05T06:34:05;15.10;99.90
16384;DHT22;8301;51.440;6.610;2023-06-05T06:36:34;15.20;99.90
16384;DHT22;8301;51.440;6.610;2023-06-05T06:39:04;15.10;99.90
16384;DHT22;8301;51.440;6.610;2023-06-05T06:41:32;15.20;99.90
16384;DHT22;8301;51.440;6.610;2023-06-05T06:43:59;15.50;99.90
16384;DHT22;8301;51.440;6.610;2023-06-05T06:46:27;15.40;99.90
16384;DHT22;8301;51.440;6.610;2023-06-05T06:48:54;15.50;99.90
16384;DHT22;8301;51.440;6.610;2023-06-05T06:51:22;15.70;99.90
16384;DHT22;8301;51.440;6.610;2023-06-05T06:53:50;15.80;99.90
16384;DHT22;8301;51.440;6.610;2023-06-05T06:56:18;15.80;99.90
16384;DHT22;8301;51.440;6.610;2023-06-05T06:58:47;16.00;99.90
16384;DHT22;8301;51.440;6.610;2023-06-05T07:01:15;16.10;99.90
16384;DHT22;8301;51.440;6.610;2023-06-05T07:03:42;16.30;99.90
16384;DHT22;8301;51.440;6.610;2023-06-05T07:06:10;16.40;99.90
16384;DHT22;8301;51.440;6.610;2023-06-05T07:08:38;16.30;99.90
16384;DHT22;8301;51.440;6.610;2023-06-05T07:11:06;16.40;91.00
16384;DHT22;8301;51.440;6.610;2023-06-05T07:13:33;16.40;99.90
16384;DHT22;8301;51.440;6.610;2023-06-05T07:16:01;16.40;94.30
16384;DHT22;8301;51.440;6.610;2023-06-05T07:18:29;16.40;99.90
16384;DHT22;8301;51.440;6.610;2023-06-05T07:20:56;16.40;99.90
16384;DHT22;8301;51.440;6.610;2023-06-05T07:23:24;16.50;99.90
16384;DHT22;8301;51.440;6.610;2023-06-05T07:25:59;16.70;9.40
16384;DHT22;8301;51.440;6.610;2023-06-05T07:28:26;16.60;41.30
16384;DHT22;8301;51.440;6.610;2023-06-05T07:30:54;16.70;90.60
16384;DHT22;8301;51.440;6.610;2023-06-05T07:33:22;16.80;85.10
16384;DHT22;8301;51.440;6.610;2023-06-05T07:35:49;16.70;87.10
16384;DHT22;8301;51.440;6.610;2023-06-05T07:38:17;16.70;99.90
16384;DHT22;8301;51.440;6.610;2023-06-05T07:40:45;16.80;99.90
16384;DHT22;8301;51.440;6.610;2023-06-05T07:43:13;16.80;99.90
16384;DHT22;8301;51.440;6.610;2023-06-05T07:45:42;16.90;56.30
16384;DHT22;8301;51.440;6.610;2023-06-05T07:48:10;17.00;99.90
16384;DHT22;8301;51.440;6.610;2023-06-05T07:50:37;17.10;46.60
16384;DHT22;8301;51.440;6.610;2023-06-05T07:53:05;17.20;99.90
16384;DHT22;8301;51.440;6.610;2023-06-05T07:55:32;17.10;26.80
16384;DHT22;8301;51.440;6.610;2023-06-05T07:58:00;17.20;99.90
16384;DHT22;8301;51.440;6.610;2023-06-05T08:00:27;17.30;17.40
16384;DHT22;8301;51.440;6.610;2023-06-05T08:02:55;17.30;48.00
16384;DHT22;8301;51.440;6.610;2023-06-05T08:05:24;17.40;18.90
16384;DHT22;8301;51.440;6.610;2023-06-05T08:07:52;17.40;26.20
16384;DHT22;8301;51.440;6.610;2023-06-05T08:10:20;17.40;1.00
16384;DHT22;8301;51.440;6.610;2023-06-05T08:12:47;17.50;1.00
16384;DHT22;8301;51.440;6.610;2023-06-05T08:15:15;17.60;1.00
16384;DHT22;8301;51.440;6.610;2023-06-05T08:17:43;17.50;1.00
16384;DHT22;8301;51.440;6.610;2023-06-05T08:20:10;17.70;29.00
16384;DHT22;8301;51.440;6.610;2023-06-05T08:22:38;17.90;1.00
16384;DHT22;8301;51.440;6.610;2023-06-05T08:25:07;17.90;61.00
16384;DHT22;8301;51.440;6.610;2023-06-05T08:27:34;18.20;1.00
16384;DHT22;8301;51.440;6.610;2023-06-05T08:30:02;18.30;1.00
16384;DHT22;8301;51.440;6.610;2023-06-05T08:32:30;18.40;1.00
16384;DHT22;8301;51.440;6.610;2023-06-05T08:34:57;18.60;1.00
16384;DHT22;8301;51.440;6.610;2023-06-05T08:37:25;18.80;1.00
16384;DHT22;8301;51.440;6.610;2023-06-05T08:39:54;18.80;1.00
16384;DHT22;8301;51.440;6.610;2023-06-05T08:42:26;19.20;1.00
16384;DHT22;8301;51.440;6.610;2023-06-05T08:44:55;19.30;1.00
16384;DHT22;8301;51.440;6.610;2023-06-05T08:47:23;19.10;1.00
16384;DHT22;8301;51.440;6.610;2023-06-05T08:49:52;19.30;1.00
16384;DHT22;8301;51.440;6.610;2023-06-05T08:52:23;19.60;1.00
16384;DHT22;8301;51.440;6.610;2023-06-05T08:54:51;19.50;1.00
16384;DHT22;8301;51.440;6.610;2023-06-05T08:57:20;19.60;1.00
16384;DHT22;8301;51.440;6.610;2023-06-05T08:59:50;19.60;1.00
16384;DHT22;8301;51.440;6.610;2023-06-05T09:02:18;20.10;1.00
16384;DHT22;8301;51.440;6.610;2023-06-05T09:04:45;20.40;1.00
16384;DHT22;8301;51.440;6.610;2023-06-05T09:07:13;20.80;1.00
16384;DHT22;8301;51.440;6.610;2023-06-05T09:09:42;20.50;1.00
16384;DHT22;8301;51.440;6.610;2023-06-05T09:12:10;20.90;1.00
16384;DHT22;8301;51.440;6.610;2023-06-05T09:14:38;21.00;1.00
16384;DHT22;8301;51.440;6.610;2023-06-05T09:17:12;20.70;1.00
16384;DHT22;8301;51.440;6.610;2023-06-05T09:19:38;21.00;1.00
16384;DHT22;8301;51.440;6.610;2023-06-05T09:22:10;20.90;1.00
16384;DHT22;8301;51.440;6.610;2023-06-05T09:24:40;21.00;1.00
16384;DHT22;8301;51.440;6.610;2023-06-05T09:27:10;21.10;1.00
16384;DHT22;8301;51.440;6.610;2023-06-05T09:29:40;21.10;1.00
16384;DHT22;8301;51.440;6.610;2023-06-05T09:32:19;21.30;1.00
16384;DHT22;8301;51.440;6.610;2023-06-05T09:34:57;21.60;1.00
16384;DHT22;8301;51.440;6.610;2023-06-05T09:37:36;21.70;1.00
16384;DHT22;8301;51.440;6.610;2023-06-05T09:40:04;22.00;1.00
16384;DHT22;8301;51.440;6.610;2023-06-05T09:42:34;21.80;1.00
16384;DHT22;8301;51.440;6.610;2023-06-05T09:45:03;21.90;1.00
16384;DHT22;8301;51.440;6.610;2023-06-05T09:47:30;22.20;1.00
16384;DHT22;8301;51.440;6.610;2023-06-05T09:49:58;22.00;1.00
16384;DHT22;8301;51.440;6.610;2023-06-05T09:52:26;21.90;1.00
16384;DHT22;8301;51.440;6.610;2023-06-05T09:54:55;22.20;1.00
16384;DHT22;8301;51.440;6.610;2023-06-05T09:57:24;21.80;1.00
16384;DHT22;8301;51.440;6.610;2023-06-05T09:59:54;21.90;1.00
16384;DHT22;8301;51.440;6.610;2023-06-05T10:02:24;22.20;1.00
16384;DHT22;8301;51.440;6.610;2023-06-05T10:04:59;22.40;1.00
16384;DHT22;8301;51.440;6.610;2023-06-05T10:07:26;21.90;1.00
16384;DHT22;8301;51.440;6.610;2023-06-05T10:09:54;22.10;1.00
16384;DHT22;8301;51.440;6.610;2023-06-05T10:12:23;22.10;1.00
16384;DHT22;8301;51.440;6.610;2023-06-05T10:14:54;22.30;1.00
16384;DHT22;8301;51.440;6.610;2023-06-05T10:17:22;22.40;1.00
16384;DHT22;8301;51.440;6.610;2023-06-05T10:19:51;21.90;1.00
16384;DHT22;8301;51.440;6.610;2023-06-05T10:22:19;22.40;1.00
16384;DHT22;8301;51.440;6.610;2023-06-05T10:24:57;22.30;1.00
16384;DHT22;8301;51.440;6.610;2023-06-05T10:27:50;22.30;1.00
16384;DHT22;8301;51.440;6.610;2023-06-05T10:36:36;22.50;1.00
16384;DHT22;8301;51.440;6.610;2023-06-05T10:39:03;22.90;1.00
16384;DHT22;8301;51.440;6.610;2023-06-05T10:41:31;23.00;1.00
16384;DHT22;8301;51.440;6.610;2023-06-05T10:43:58;23.00;1.00
16384;DHT22;8301;51.440;6.610;2023-06-05T10:46:33;22.90;1.00
16384;DHT22;8301;51.440;6.610;2023-06-05T10:49:14;23.00;1.00
16384;DHT22;8301;51.440;6.610;2023-06-05T10:51:45;23.20;1.00
16384;DHT22;8301;51.440;6.610;2023-06-05T10:54:15;23.50;1.00
16384;DHT22;8301;51.440;6.610;2023-06-05T10:57:00;23.50;1.00
16384;DHT22;8301;51.440;6.610;2023-06-05T10:59:35;23.40;1.00
16384;DHT22;8301;51.440;6.610;2023-06-05T11:07:29;23.80;1.00
16384;DHT22;8301;51.440;6.610;2023-06-05T11:10:08;23.80;1.00
16384;DHT22;8301;51.440;6.610;2023-06-05T11:15:33;24.20;1.00
16384;DHT22;8301;51.440;6.610;2023-06-05T11:17:46;24.20;1.00
16384;DHT22;8301;51.440;6.610;2023-06-05T11:25:27;24.30;1.00
16384;DHT22;8301;51.440;6.610;2023-06-05T11:27:58;24.40;1.00
16384;DHT22;8301;51.440;6.610;2023-06-05T11:30:29;24.40;1.00
16384;DHT22;8301;51.440;6.610;2023-06-05T11:35:45;24.00;1.00
16384;DHT22;8301;51.440;6.610;2023-06-05T11:38:19;24.40;1.00
16384;DHT22;8301;51.440;6.610;2023-06-05T11:40:51;24.60;1.00
16384;DHT22;8301;51.440;6.610;2023-06-05T11:43:19;25.00;1.00
16384;DHT22;8301;51.440;6.610;2023-06-05T11:45:55;24.70;1.00
16384;DHT22;8301;51.440;6.610;2023-06-05T11:48:23;24.90;1.00
16384;DHT22;8301;51.440;6.610;2023-06-05T11:53:25;24.50;1.00
16384;DHT22;8301;51.440;6.610;2023-06-05T11:55:54;24.60;1.00
16384;DHT22;8301;51.440;6.610;2023-06-05T11:58:28;25.00;1.00
16384;DHT22;8301;51.440;6.610;2023-06-05T12:01:07;24.90;1.00
16384;DHT22;8301;51.440;6.610;2023-06-05T12:03:36;25.10;1.00
16384;DHT22;8301;51.440;6.610;2023-06-05T12:06:04;24.90;1.00
16384;DHT22;8301;51.440;6.610;2023-06-05T12:08:33;25.30;1.00
16384;DHT22;8301;51.440;6.610;2023-06-05T12:11:03;25.40;99.90
16384;DHT22;8301;51.440;6.610;2023-06-05T12:13:48;25.10;99.90
16384;DHT22;8301;51.440;6.610;2023-06-05T12:16:31;25.20;99.90
16384;DHT22;8301;51.440;6.610;2023-06-05T12:18:59;25.30;99.90
16384;DHT22;8301;51.440;6.610;2023-06-05T12:21:27;25.70;99.90
16384;DHT22;8301;51.440;6.610;2023-06-05T12:24:03;25.90;99.90
16384;DHT22;8301;51.440;6.610;2023-06-05T12:26:55;25.90;99.90
16384;DHT22;8301;51.440;6.610;2023-06-05T12:29:29;26.00;99.90
16384;DHT22;8301;51.440;6.610;2023-06-05T12:31:58;25.80;99.90
16384;DHT22;8301;51.440;6.610;2023-06-05T12:34:46;25.70;99.90
16384;DHT22;8301;51.440;6.610;2023-06-05T12:37:25;25.20;99.90
16384;DHT22;8301;51.440;6.610;2023-06-05T12:40:01;24.90;99.90
16384;DHT22;8301;51.440;6.610;2023-06-05T12:42:34;25.00;99.90
16384;DHT22;8301;51.440;6.610;2023-06-05T12:45:06;25.40;99.90
16384;DHT22;8301;51.440;6.610;2023-06-05T12:47:35;25.50;99.90
16384;DHT22;8301;51.440;6.610;2023-06-05T12:50:04;25.30;99.90
16384;DHT22;8301;51.440;6.610;2023-06-05T12:52:33;25.20;99.90
16384;DHT22;8301;51.440;6.610;2023-06-05T12:55:01;25.40;99.90
16384;DHT22;8301;51.440;6.610;2023-06-05T12:57:31;25.50;99.90
16384;DHT22;8301;51.440;6.610;2023-06-05T13:00:03;26.00;99.90
16384;DHT22;8301;51.440;6.610;2023-06-05T13:02:32;25.80;99.90
16384;DHT22;8301;51.440;6.610;2023-06-05T13:05:02;26.00;99.90
16384;DHT22;8301;51.440;6.610;2023-06-05T13:07:31;26.10;99.90
16384;DHT22;8301;51.440;6.610;2023-06-05T13:09:59;26.00;99.90
16384;DHT22;8301;51.440;6.610;2023-06-05T13:12:27;25.90;99.90
16384;DHT22;8301;51.440;6.610;2023-06-05T13:14:55;25.90;99.90
16384;DHT22;8301;51.440;6.610;2023-06-05T13:17:23;25.80;99.90
16384;DHT22;8301;51.440;6.610;2023-06-05T13:19:51;25.80;99.90
16384;DHT22;8301;51.440;6.610;2023-06-05T13:22:18;25.70;99.90
16384;DHT22;8301;51.440;6.610;2023-06-05T13:24:48;25.90;99.90
16384;DHT22;8301;51.440;6.610;2023-06-05T13:27:16;26.00;99.90
16384;DHT22;8301;51.440;6.610;2023-06-05T13:29:45;26.20;99.90
16384;DHT22;8301;51.440;6.610;2023-06-05T13:32:13;26.00;99.90
16384;DHT22;8301;51.440;6.610;2023-06-05T13:34:40;26.20;99.90
16384;DHT22;8301;51.440;6.610;2023-06-05T13:37:08;26.20;99.90
16384;DHT22;8301;51.440;6.610;2023-06-05T13:39:35;26.30;99.90
16384;DHT22;8301;51.440;6.610;2023-06-05T13:42:03;26.40;99.90
16384;DHT22;8301;51.440;6.610;2023-06-05T13:44:31;26.10;99.90
16384;DHT22;8301;51.440;6.610;2023-06-05T13:46:58;26.30;99.90
16384;DHT22;8301;51.440;6.610;2023-06-05T13:49:27;26.40;99.90
16384;DHT22;8301;51.440;6.610;2023-06-05T13:51:55;26.40;99.90
16384;DHT22;8301;51.440;6.610;2023-06-05T13:54:23;26.40;99.90
16384;DHT22;8301;51.440;6.610;2023-06-05T13:56:50;26.30;99.90
16384;DHT22;8301;51.440;6.610;2023-06-05T13:59:19;26.20;99.90
16384;DHT22;8301;51.440;6.610;2023-06-05T14:01:46;26.10;99.90
16384;DHT22;8301;51.440;6.610;2023-06-05T14:04:14;26.20;99.90
16384;DHT22;8301;51.440;6.610;2023-06-05T14:06:42;26.30;99.90
16384;DHT22;8301;51.440;6.610;2023-06-05T14:09:09;26.30;99.90
16384;DHT22;8301;51.440;6.610;2023-06-05T14:11:37;25.80;99.90
16384;DHT22;8301;51.440;6.610;2023-06-05T14:14:05;26.00;99.90
16384;DHT22;8301;51.440;6.610;2023-06-05T14:16:33;26.10;99.90
16384;DHT22;8301;51.440;6.610;2023-06-05T14:19:00;26.00;99.90
16384;DHT22;8301;51.440;6.610;2023-06-05T14:21:28;26.10;99.90
16384;DHT22;8301;51.440;6.610;2023-06-05T14:23:55;26.10;99.90
16384;DHT22;8301;51.440;6.610;2023-06-05T14:26:23;26.00;99.90
16384;DHT22;8301;51.440;6.610;2023-06-05T14:28:52;26.00;99.90
16384;DHT22;8301;51.440;6.610;2023-06-05T14:31:19;25.90;99.90
16384;DHT22;8301;51.440;6.610;2023-06-05T14:33:48;26.00;99.90
16384;DHT22;8301;51.440;6.610;2023-06-05T14:36:16;26.00;99.90
16384;DHT22;8301;51.440;6.610;2023-06-05T14:38:43;26.30;99.90
16384;DHT22;8301;51.440;6.610;2023-06-05T14:41:11;26.30;99.90
16384;DHT22;8301;51.440;6.610;2023-06-05T14:43:39;26.50;99.90
16384;DHT22;8301;51.440;6.610;2023-06-05T14:46:06;26.60;99.90
16384;DHT22;8301;51.440;6.610;2023-06-05T14:48:34;26.70;99.90
16384;DHT22;8301;51.440;6.610;2023-06-05T14:51:01;26.80;99.90
16384;DHT22;8301;51.440;6.610;2023-06-05T14:53:29;26.70;99.90
16384;DHT22;8301;51.440;6.610;2023-06-05T14:55:58;26.30;99.90
16384;DHT22;8301;51.440;6.610;2023-06-05T14:58:26;26.20;99.90
16384;DHT22;8301;51.440;6.610;2023-06-05T15:00:53;26.00;99.90
16384;DHT22;8301;51.440;6.610;2023-06-05T15:03:21;25.90;99.90
16384;DHT22;8301;51.440;6.610;2023-06-05T15:05:48;26.10;99.90
16384;DHT22;8301;51.440;6.610;2023-06-05T15:08:16;26.10;99.90
16384;DHT22;8301;51.440;6.610;2023-06-05T15:10:43;26.00;99.90
16384;DHT22;8301;51.440;6.610;2023-06-05T15:13:11;26.10;99.90
16384;DHT22;8301;51.440;6.610;2023-06-05T15:15:38;26.10;99.90
16384;DHT22;8301;51.440;6.610;2023-06-05T15:18:06;26.30;99.90
16384;DHT22;8301;51.440;6.610;2023-06-05T15:20:34;26.40;99.90
16384;DHT22;8301;51.440;6.610;2023-06-05T15:23:02;26.20;99.90
16384;DHT22;8301;51.440;6.610;2023-06-05T15:25:31;26.20;99.90
16384;DHT22;8301;51.440;6.610;2023-06-05T15:28:01;26.30;99.90
16384;DHT22;8301;51.440;6.610;2023-06-05T15:30:29;26.40;99.90
16384;DHT22;8301;51.440;6.610;2023-06-05T15:32:56;26.10;99.90
16384;DHT22;8301;51.440;6.610;2023-06-05T15:35:24;25.90;99.90
16384;DHT22;8301;51.440;6.610;2023-06-05T15:37:53;25.80;99.90
16384;DHT22;8301;51.440;6.610;2023-06-05T15:40:28;25.70;99.90
16384;DHT22;8301;51.440;6.610;2023-06-05T15:43:08;25.80;99.90
16384;DHT22;8301;51.440;6.610;2023-06-05T15:45:38;25.70;99.90
16384;DHT22;8301;51.440;6.610;2023-06-05T15:48:06;25.70;99.90
16384;DHT22;8301;51.440;6.610;2023-06-05T15:50:35;25.50;99.90
16384;DHT22;8301;51.440;6.610;2023-06-05T15:53:03;25.50;99.90
16384;DHT22;8301;51.440;6.610;2023-06-05T15:55:31;25.80;99.90
16384;DHT22;8301;51.440;6.610;2023-06-05T15:57:58;25.80;99.90
16384;DHT22;8301;51.440;6.610;2023-06-05T16:00:26;25.80;99.90
16384;DHT22;8301;51.440;6.610;2023-06-05T16:02:53;26.00;99.90
16384;DHT22;8301;51.440;6.610;2023-06-05T16:05:22;25.90;99.90
16384;DHT22;8301;51.440;6.610;2023-06-05T16:07:49;25.60;99.90
16384;DHT22;8301;51.440;6.610;2023-06-05T16:10:17;25.70;99.90
16384;DHT22;8301;51.440;6.610;2023-06-05T16:12:46;25.70;99.90
16384;DHT22;8301;51.440;6.610;2023-06-05T16:15:13;25.50;99.90
16384;DHT22;8301;51.440;6.610;2023-06-05T16:17:42;25.60;99.90
16384;DHT22;8301;51.440;6.610;2023-06-05T16:20:09;25.60;99.90
16384;DHT22;8301;51.440;6.610;2023-06-05T16:22:37;25.50;99.90
16384;DHT22;8301;51.440;6.610;2023-06-05T16:25:05;25.60;99.90
16384;DHT22;8301;51.440;6.610;2023-06-05T16:27:32;25.50;99.90